Time;durP1;ratioP1;P1;durP2;ratioP2;P2;SDS_P1;SDS_P2;PMS_P1;PMS_P2;Temp;Humidity;BMP_temperature;BMP_pressure;BME280_temperature;BME280_humidity;BME280_pressure;Samples;Min_cycle;Max_cycle;Signal;HPM_P1;HPM_P2
2022/06/15 00:00:06;;;;;;;;;;;;;;;;;;5071942;28;20419;-66
2022/06/15 00:02:32;;;;;;;;;;;;;;;;;;5071974;28;19924;-66
2022/06/15 00:04:59;;;;;;;;;;;;;;;;;;5071213;28;19947;-66
2022/06/15 00:07:25;;;;;;;;;;;;;;;;;;5072071;28;20015;-66
2022/06/15 00:09:51;;;;;;;;;;;;;;;;;;5072068;28;20057;-66
2022/06/15 00:12:17;;;;;;;;;;;;;;;;;;5070332;28;19920;-66
2022/06/15 00:14:42;;;;;;;;;;;;;;;;;;5072162;28;20453;-66
2022/06/15 00:17:09;;;;;;;;;;;;;;;;;;5075184;28;19962;-66
2022/06/15 00:19:35;;;;;;;;;;;;;;;;;;5075359;28;20406;-66
2022/06/15 00:22:01;;;;;;;;;;;;;;;;;;5076124;28;19924;-66
2022/06/15 00:24:27;;;;;;;;;;;;;;;;;;5076074;28;19921;-66
2022/06/15 00:26:53;;;;;;;;;;;;;;;;;;5089755;28;19928;-66
2022/06/15 00:29:19;;;;;;;;;;;;;;;;;;5077867;28;20003;-66
2022/06/15 00:31:45;;;;;;;;;;;;;;;;;;5094700;28;19920;-66
2022/06/15 00:34:11;;;;;;;;;;;;;;;;;;5095474;28;19920;-66
2022/06/15 00:36:37;;;;;;;;;;;;;;;;;;5095800;28;20271;-66
2022/06/15 00:39:03;;;;;;;;;;;;;;;;;;5095991;28;19927;-66
2022/06/15 00:41:29;;;;;;;;;;;;;;;;;;5093786;28;19920;-66
2022/06/15 00:43:55;;;;;;;;;;;;;;;;;;5094043;28;19931;-66
2022/06/15 00:46:21;;;;;;;;;;;;;;;;;;5094263;28;20369;-66
2022/06/15 00:48:47;;;;;;;;;;;;;;;;;;5095305;28;19920;-66
2022/06/15 00:51:13;;;;;;;;;;;;;;;;;;5095886;28;20285;-66
2022/06/15 00:53:39;;;;;;;;;;;;;;;;;;5095605;28;19920;-66
2022/06/15 00:56:05;;;;;;;;;;;;;;;;;;5094860;28;19927;-66
2022/06/15 00:58:31;;;;;;;;;;;;;;;;;;5095819;28;19946;-66
2022/06/15 01:00:57;;;;;;;;;;;;;;;;;;5095549;28;20309;-66
2022/06/15 01:03:23;;;;;;;;;;;;;;;;;;5094989;28;20385;-66
2022/06/15 01:05:50;;;;;;;;;;;;;;;;;;5095437;28;19929;-66
2022/06/15 01:08:16;;;;;;;;;;;;;;;;;;5093941;28;19920;-66
2022/06/15 01:10:42;;;;;;;;;;;;;;;;;;5094850;28;20125;-66
2022/06/15 01:13:09;;;;;;;;;;;;;;;;;;5093891;28;20447;-66
2022/06/15 01:15:36;;;;;;;;;;;;;;;;;;5095098;28;20266;-66
2022/06/15 01:18:02;;;;;;;;;;;;;;;;;;5094783;28;19924;-66
2022/06/15 01:20:28;;;;;;;;;;;;;;;;;;5094967;28;19947;-66
2022/06/15 01:22:54;;;;;;;;;;;;;;;;;;5093923;28;19931;-66
2022/06/15 01:25:20;;;;;;;;;;;;;;;;;;5092606;28;19925;-66
2022/06/15 01:27:45;;;;;;;;;;;;;;;;;;5073977;28;19927;-66
2022/06/15 01:30:11;;;;;;;;;;;;;;;;;;5073435;28;19925;-66
2022/06/15 01:32:37;;;;;;;;;;;;;;;;;;5074124;28;19924;-66
2022/06/15 01:35:03;;;;;;;;;;;;;;;;;;5074367;28;19921;-66
2022/06/15 01:37:29;;;;;;;;;;;;;;;;;;5074476;28;19920;-66
2022/06/15 01:39:55;;;;;;;;;;;;;;;;;;5073924;28;19973;-66
2022/06/15 01:42:21;;;;;;;;;;;;;;;;;;5072797;28;19928;-66
2022/06/15 01:44:47;;;;;;;;;;;;;;;;;;5074403;28;19932;-66
2022/06/15 01:47:13;;;;;;;;;;;;;;;;;;5074004;28;19946;-66
2022/06/15 01:49:39;;;;;;;;;;;;;;;;;;5074545;28;19920;-66
2022/06/15 01:52:05;;;;;;;;;;;;;;;;;;5074511;28;19965;-66
2022/06/15 01:54:31;;;;;;;;;;;;;;;;;;5073815;28;19920;-66
2022/06/15 01:56:58;;;;;;;;;;;;;;;;;;5074217;28;19943;-66
2022/06/15 01:59:24;;;;;;;;;;;;;;;;;;5074271;28;19975;-66
2022/06/15 02:01:50;;;;;;;;;;;;;;;;;;5072376;28;19967;-66
2022/06/15 02:04:16;;;;;;;;;;;;;;;;;;5072700;28;20403;-66
2022/06/15 02:06:43;;;;;;;;;;;;;;;;;;5074131;28;19971;-66
2022/06/15 02:09:09;;;;;;;;;;;;;;;;;;5073625;28;19974;-66
2022/06/15 02:11:35;;;;;;;;;;;;;;;;;;5074049;28;19921;-66
2022/06/15 02:14:01;;;;;;;;;;;;;;;;;;5073967;28;20003;-66
2022/06/15 02:16:27;;;;;;;;;;;;;;;;;;5071857;28;19924;-66
2022/06/15 02:18:53;;;;;;;;;;;;;;;;;;5073886;28;19920;-66
2022/06/15 02:21:19;;;;;;;;;;;;;;;;;;5073565;28;19967;-66
2022/06/15 02:23:46;;;;;;;;;;;;;;;;;;5073135;28;19925;-66
2022/06/15 02:26:12;;;;;;;;;;;;;;;;;;5082836;28;20298;-66
2022/06/15 02:28:38;;;;;;;;;;;;;;;;;;5093810;28;19924;-66
2022/06/15 02:31:04;;;;;;;;;;;;;;;;;;5091994;28;19920;-66
2022/06/15 02:33:30;;;;;;;;;;;;;;;;;;5092317;28;19969;-66
2022/06/15 02:35:56;;;;;;;;;;;;;;;;;;5093907;28;20421;-66
2022/06/15 02:38:23;;;;;;;;;;;;;;;;;;5092642;28;19995;-66
2022/06/15 02:40:50;;;;;;;;;;;;;;;;;;5093143;28;19978;-66
2022/06/15 02:43:16;;;;;;;;;;;;;;;;;;5091803;28;19963;-66
2022/06/15 02:45:42;;;;;;;;;;;;;;;;;;5093568;28;20025;-66
2022/06/15 02:48:08;;;;;;;;;;;;;;;;;;5093241;28;20066;-66
2022/06/15 02:50:34;;;;;;;;;;;;;;;;;;5091945;28;20307;-66
2022/06/15 02:53:00;;;;;;;;;;;;;;;;;;5093600;28;19993;-66
2022/06/15 02:55:26;;;;;;;;;;;;;;;;;;5091264;28;19920;-66
2022/06/15 02:57:52;;;;;;;;;;;;;;;;;;5092982;28;20425;-66
2022/06/15 03:00:18;;;;;;;;;;;;;;;;;;5091727;28;19928;-66
2022/06/15 03:02:44;;;;;;;;;;;;;;;;;;5092647;28;20424;-66
2022/06/15 03:05:10;;;;;;;;;;;;;;;;;;5093356;28;20024;-66
2022/06/15 03:07:36;;;;;;;;;;;;;;;;;;5093003;28;19931;-66
2022/06/15 03:10:02;;;;;;;;;;;;;;;;;;5090637;28;19954;-66
2022/06/15 03:12:27;;;;;;;;;;;;;;;;;;5093135;28;20019;-67
2022/06/15 03:14:53;;;;;;;;;;;;;;;;;;5092849;28;19920;-67
2022/06/15 03:17:19;;;;;;;;;;;;;;;;;;5092217;28;19923;-67
2022/06/15 03:19:45;;;;;;;;;;;;;;;;;;5091740;28;19920;-67
2022/06/15 03:22:11;;;;;;;;;;;;;;;;;;5092868;28;19920;-67
2022/06/15 03:24:37;;;;;;;;;;;;;;;;;;5092139;28;19978;-67
2022/06/15 03:27:04;;;;;;;;;;;;;;;;;;5076322;28;20011;-67
2022/06/15 03:29:31;;;;;;;;;;;;;;;;;;5072549;28;19921;-67
2022/06/15 03:31:57;;;;;;;;;;;;;;;;;;5071811;28;19920;-67
2022/06/15 03:34:23;;;;;;;;;;;;;;;;;;5072454;28;19920;-67
2022/06/15 03:36:49;;;;;;;;;;;;;;;;;;5072515;28;19924;-67
2022/06/15 03:39:16;;;;;;;;;;;;;;;;;;5071638;28;20086;-67
2022/06/15 03:41:42;;;;;;;;;;;;;;;;;;5072331;28;19944;-67
2022/06/15 03:44:10;;;;;;;;;;;;;;;;;;5072347;28;20463;-67
2022/06/15 03:46:36;;;;;;;;;;;;;;;;;;5071748;28;19927;-67
2022/06/15 03:49:01;;;;;;;;;;;;;;;;;;5072296;28;20286;-67
2022/06/15 03:51:28;;;;;;;;;;;;;;;;;;5072175;28;19920;-67
2022/06/15 03:53:54;;;;;;;;;;;;;;;;;;5071820;28;19960;-67
2022/06/15 03:56:20;;;;;;;;;;;;;;;;;;5072450;28;19924;-67
2022/06/15 03:58:46;;;;;;;;;;;;;;;;;;5072417;28;20504;-67
2022/06/15 04:01:12;;;;;;;;;;;;;;;;;;5071525;28;19921;-67
2022/06/15 04:03:38;;;;;;;;;;;;;;;;;;5070569;28;19928;-67
2022/06/15 04:06:04;;;;;;;;;;;;;;;;;;5072151;28;19920;-67
2022/06/15 04:08:39;;;;;;;;;;;;;;;;;;5070331;28;19920;-67
2022/06/15 04:11:06;;;;;;;;;;;;;;;;;;5072278;28;19920;-67
2022/06/15 04:13:32;;;;;;;;;;;;;;;;;;5072236;28;20015;-67
2022/06/15 04:15:58;;;;;;;;;;;;;;;;;;5071619;28;20022;-67
2022/06/15 04:18:24;;;;;;;;;;;;;;;;;;5072184;28;19972;-67
2022/06/15 04:20:50;;;;;;;;;;;;;;;;;;5070671;28;19993;-67
2022/06/15 04:23:16;;;;;;;;;;;;;;;;;;5070078;28;19920;-67
2022/06/15 04:25:43;;;;;;;;;;;;;;;;;;5077154;28;19923;-67
2022/06/15 04:28:09;;;;;;;;;;;;;;;;;;5073743;28;19927;-67
2022/06/15 04:30:35;;;;;;;;;;;;;;;;;;5091357;28;19920;-67
2022/06/15 04:33:01;;;;;;;;;;;;;;;;;;5092137;28;19946;-67
2022/06/15 04:35:27;;;;;;;;;;;;;;;;;;5091922;28;19928;-67
2022/06/15 04:37:54;;;;;;;;;;;;;;;;;;5091198;28;20387;-67
2022/06/15 04:40:20;;;;;;;;;;;;;;;;;;5091788;28;19967;-67
2022/06/15 04:42:46;;;;;;;;;;;;;;;;;;5091156;28;19961;-67
2022/06/15 04:45:12;;;;;;;;;;;;;;;;;;5090391;28;19951;-67
2022/06/15 04:47:38;;;;;;;;;;;;;;;;;;5091708;28;19923;-67
2022/06/15 04:50:04;;;;;;;;;;;;;;;;;;5091440;28;20332;-67
2022/06/15 04:52:30;;;;;;;;;;;;;;;;;;5090944;28;20556;-67
2022/06/15 04:54:56;;;;;;;;;;;;;;;;;;5091635;28;20022;-67
2022/06/15 04:57:22;;;;;;;;;;;;;;;;;;5091409;28;19924;-67
2022/06/15 04:59:48;;;;;;;;;;;;;;;;;;5090884;28;20402;-67
2022/06/15 05:02:14;;;;;;;;;;;;;;;;;;5091786;28;19920;-67
2022/06/15 05:04:40;;;;;;;;;;;;;;;;;;5095147;28;20351;-67
2022/06/15 05:07:06;;;;;;;;;;;;;;;;;;5094801;28;20335;-67
2022/06/15 05:09:32;;;;;;;;;;;;;;;;;;5095036;28;19993;-67
2022/06/15 05:11:59;;;;;;;;;;;;;;;;;;5094831;28;20273;-67
2022/06/15 05:14:25;;;;;;;;;;;;;;;;;;5094384;28;19920;-67
2022/06/15 05:16:51;;;;;;;;;;;;;;;;;;5094644;28;19923;-67
2022/06/15 05:19:17;;;;;;;;;;;;;;;;;;5095095;28;19924;-67
2022/06/15 05:21:43;;;;;;;;;;;;;;;;;;5094219;28;19994;-67
2022/06/15 05:24:09;;;;;;;;;;;;;;;;;;5094958;28;19961;-67
2022/06/15 05:26:35;;;;;;;;;;;;;;;;;;5082258;28;19920;-67
2022/06/15 05:29:01;;;;;;;;;;;;;;;;;;5073865;28;19924;-67
2022/06/15 05:31:27;;;;;;;;;;;;;;;;;;5073922;28;20290;-67
2022/06/15 05:33:56;;;;;;;;;;;;;;;;;;5074284;28;19943;-67
2022/06/15 05:36:22;;;;;;;;;;;;;;;;;;5073562;28;19924;-67
2022/06/15 05:38:48;;;;;;;;;;;;;;;;;;5074479;28;19935;-67
2022/06/15 05:41:14;;;;;;;;;;;;;;;;;;5074255;28;20470;-67
2022/06/15 05:43:57;;;;;;;;;;;;;;;;;;5073082;28;19924;-67
2022/06/15 05:46:24;;;;;;;;;;;;;;;;;;5073882;28;19920;-67
2022/06/15 05:48:50;;;;;;;;;;;;;;;;;;5073590;28;19943;-67
2022/06/15 05:51:16;;;;;;;;;;;;;;;;;;5073465;28;20444;-67
2022/06/15 05:53:42;;;;;;;;;;;;;;;;;;5073803;28;20358;-67
2022/06/15 05:56:08;;;;;;;;;;;;;;;;;;5073849;28;19963;-67
2022/06/15 05:58:34;;;;;;;;;;;;;;;;;;5073351;28;20021;-67
2022/06/15 06:01:00;;;;;;;;;;;;;;;;;;5073634;28;20058;-67
2022/06/15 06:03:26;;;;;;;;;;;;;;;;;;5073862;28;19920;-67
2022/06/15 06:05:52;;;;;;;;;;;;;;;;;;5073035;28;19921;-67
2022/06/15 06:08:18;;;;;;;;;;;;;;;;;;5073819;28;19940;-67
2022/06/15 06:10:44;;;;;;;;;;;;;;;;;;5073377;28;20306;-67
2022/06/15 06:13:10;;;;;;;;;;;;;;;;;;5072890;28;19963;-67
2022/06/15 06:15:36;;;;;;;;;;;;;;;;;;5072994;28;20013;-67
2022/06/15 06:18:02;;;;;;;;;;;;;;;;;;5073468;28;20673;-67
2022/06/15 06:20:28;;;;;;;;;;;;;;;;;;5072981;28;20019;-67
2022/06/15 06:22:54;;;;;;;;;;;;;;;;;;5073242;28;20058;-67
2022/06/15 06:25:20;;;;;;;;;;;;;;;;;;5075168;28;20405;-67
2022/06/15 06:27:46;;;;;;;;;;;;;;;;;;5093322;28;19943;-67
2022/06/15 06:30:12;;;;;;;;;;;;;;;;;;5088277;28;19924;-67
2022/06/15 06:32:38;;;;;;;;;;;;;;;;;;5102007;28;19997;-68
2022/06/15 06:35:04;;;;;;;;;;;;;;;;;;5113929;28;19920;-67
2022/06/15 06:37:30;;;;;;;;;;;;;;;;;;5072786;28;19927;-67
2022/06/15 06:39:56;;;;;;;;;;;;;;;;;;5092477;28;20006;-67
2022/06/15 06:42:22;;;;;;;;;;;;;;;;;;5111177;28;19927;-68
2022/06/15 06:44:48;;;;;;;;;;;;;;;;;;5103138;28;20402;-67
2022/06/15 06:47:14;;;;;;;;;;;;;;;;;;5093041;28;20031;-68
2022/06/15 06:49:40;;;;;;;;;;;;;;;;;;5093458;28;19920;-67
2022/06/15 06:52:06;;;;;;;;;;;;;;;;;;5103452;28;19926;-67
2022/06/15 06:54:33;;;;;;;;;;;;;;;;;;5096095;28;19984;-67
2022/06/15 06:56:59;;;;;;;;;;;;;;;;;;5078927;28;19925;-67
2022/06/15 06:59:25;;;;;;;;;;;;;;;;;;5080648;28;19924;-67
2022/06/15 07:01:51;;;;;;;;;;;;;;;;;;5089716;28;19926;-67
2022/06/15 07:04:17;;;;;;;;;;;;;;;;;;5078891;28;19929;-67
2022/06/15 07:06:43;;;;;;;;;;;;;;;;;;5083083;28;19993;-67
2022/06/15 07:09:09;;;;;;;;;;;;;;;;;;5099347;28;19949;-67
2022/06/15 07:11:35;;;;;;;;;;;;;;;;;;5089277;28;20717;-68
2022/06/15 07:14:01;;;;;;;;;;;;;;;;;;5065042;28;20003;-67
2022/06/15 07:16:27;;;;;;;;;;;;;;;;;;5080505;28;19952;-67
2022/06/15 07:18:54;;;;;;;;;;;;;;;;;;5070549;28;19927;-67
2022/06/15 07:21:20;;;;;;;;;;;;;;;;;;5086467;28;19950;-67
2022/06/15 07:23:46;;;;;;;;;;;;;;;;;;5093776;28;19936;-68
2022/06/15 07:26:12;;;;;;;;;;;;;;;;;;5080494;28;19946;-67
2022/06/15 07:28:38;;;;;;;;;;;;;;;;;;5080026;28;19928;-67
2022/06/15 07:31:04;;;;;;;;;;;;;;;;;;5081714;28;19921;-68
2022/06/15 07:33:30;;;;;;;;;;;;;;;;;;5081201;28;20344;-67
2022/06/15 07:35:56;;;;;;;;;;;;;;;;;;5104592;28;19919;-67
2022/06/15 07:38:22;;;;;;;;;;;;;;;;;;5093518;28;19924;-67
2022/06/15 07:40:48;;;;;;;;;;;;;;;;;;5077961;28;19934;-71
2022/06/15 07:43:14;;;;;;;;;;;;;;;;;;5087375;28;20039;-69
2022/06/15 07:45:43;;;;;;;;;;;;;;;;;;5085406;28;20608;-70
2022/06/15 07:50:56;;;;;;;;;;;;;;;;;;5089244;28;20322;-69
2022/06/15 07:53:22;;;;;;;;;;;;;;;;;;5092175;28;20017;-68
2022/06/15 07:55:47;;;;;;;;;;;;;;;;;;5096647;28;19924;-70
2022/06/15 07:58:15;;;;;;;;;;;;;;;;;;5074040;28;20038;-70
2022/06/15 08:00:42;;;;;;;;;;;;;;;;;;5086439;28;19926;-70
2022/06/15 08:03:09;;;;;;;;;;;;;;;;;;5087730;28;19931;-69
2022/06/15 08:05:39;;;;;;;;;;;;;;;;;;5083623;28;20405;-68
2022/06/15 08:08:04;;;;;;;;;;;;;;;;;;5083024;28;19966;-70
2022/06/15 08:10:34;;;;;;;;;;;;;;;;;;5084398;28;19920;-68
2022/06/15 08:13:00;;;;;;;;;;;;;;;;;;5087033;28;20011;-68
2022/06/15 08:15:26;;;;;;;;;;;;;;;;;;5086257;28;20015;-68
2022/06/15 08:17:52;;;;;;;;;;;;;;;;;;5067199;28;20259;-68
2022/06/15 08:20:18;;;;;;;;;;;;;;;;;;5089949;28;19923;-68
2022/06/15 08:22:44;;;;;;;;;;;;;;;;;;5085267;28;19990;-67
2022/06/15 08:25:10;;;;;;;;;;;;;;;;;;5085188;28;19928;-67
2022/06/15 08:27:37;;;;;;;;;;;;;;;;;;5098711;28;19926;-68
2022/06/15 08:30:03;;;;;;;;;;;;;;;;;;5083800;28;19920;-67
2022/06/15 08:32:29;;;;;;;;;;;;;;;;;;5083141;28;19972;-67
2022/06/15 08:34:55;;;;;;;;;;;;;;;;;;5082227;28;19973;-67
2022/06/15 08:37:21;;;;;;;;;;;;;;;;;;5081998;28;19928;-68
2022/06/15 08:39:47;;;;;;;;;;;;;;;;;;5083638;28;19966;-68
2022/06/15 08:42:13;;;;;;;;;;;;;;;;;;5091892;28;19970;-68
2022/06/15 08:44:39;;;;;;;;;;;;;;;;;;5093380;28;19932;-67
2022/06/15 08:47:05;;;;;;;;;;;;;;;;;;5095374;28;19945;-67
2022/06/15 08:49:31;;;;;;;;;;;;;;;;;;5096194;28;19931;-68
2022/06/15 08:51:57;;;;;;;;;;;;;;;;;;5087350;28;20385;-68
2022/06/15 08:54:23;;;;;;;;;;;;;;;;;;5083212;28;19928;-66
2022/06/15 08:56:49;;;;;;;;;;;;;;;;;;5085479;28;19947;-67
2022/06/15 08:59:15;;;;;;;;;;;;;;;;;;5090917;28;19931;-67
2022/06/15 09:01:41;;;;;;;;;;;;;;;;;;5089204;28;19924;-67
2022/06/15 09:04:08;;;;;;;;;;;;;;;;;;5091176;28;19946;-67
2022/06/15 09:06:34;;;;;;;;;;;;;;;;;;5090565;28;19924;-67
2022/06/15 09:09:00;;;;;;;;;;;;;;;;;;5085414;28;19989;-67
2022/06/15 09:11:26;;;;;;;;;;;;;;;;;;5082073;28;19956;-67
2022/06/15 09:13:52;;;;;;;;;;;;;;;;;;5099678;28;19924;-66
2022/06/15 09:16:18;;;;;;;;;;;;;;;;;;5100228;28;19921;-67
2022/06/15 09:18:44;;;;;;;;;;;;;;;;;;5083405;28;19946;-67
2022/06/15 09:21:10;;;;;;;;;;;;;;;;;;5089796;28;20557;-68
2022/06/15 09:23:37;;;;;;;;;;;;;;;;;;5103177;28;20381;-67
2022/06/15 09:26:03;;;;;;;;;;;;;;;;;;5098595;28;20503;-67
2022/06/15 09:28:29;;;;;;;;;;;;;;;;;;5099372;28;20014;-67
2022/06/15 09:30:55;;;;;;;;;;;;;;;;;;5086403;28;20059;-67
2022/06/15 09:33:22;;;;;;;;;;;;;;;;;;5081850;28;19974;-67
2022/06/15 09:35:48;;;;;;;;;;;;;;;;;;5093395;28;19923;-67
2022/06/15 09:38:13;;;;;;;;;;;;;;;;;;5103998;28;19920;-67
2022/06/15 09:40:39;;;;;;;;;;;;;;;;;;5092145;28;19927;-66
2022/06/15 09:43:05;;;;;;;;;;;;;;;;;;5091058;28;20046;-67
2022/06/15 09:45:32;;;;;;;;;;;;;;;;;;5083312;28;19928;-67
2022/06/15 09:47:58;;;;;;;;;;;;;;;;;;5092467;28;19924;-67
2022/06/15 09:50:24;;;;;;;;;;;;;;;;;;5106107;28;20272;-67
2022/06/15 09:52:54;;;;;;;;;;;;;;;;;;5100438;28;19966;-67
2022/06/15 09:55:22;;;;;;;;;;;;;;;;;;5098600;28;19920;-67
2022/06/15 09:57:48;;;;;;;;;;;;;;;;;;5096050;28;19935;-67
2022/06/15 10:00:15;;;;;;;;;;;;;;;;;;5082908;28;19924;-67
2022/06/15 10:02:41;;;;;;;;;;;;;;;;;;5080577;28;20011;-67
2022/06/15 10:05:07;;;;;;;;;;;;;;;;;;5082639;28;19931;-67
2022/06/15 10:07:33;;;;;;;;;;;;;;;;;;5085055;28;19924;-67
2022/06/15 10:09:59;;;;;;;;;;;;;;;;;;5106049;28;20012;-67
2022/06/15 10:15:09;;;;;;;;;;;;;;;;;;5083791;28;20442;-68
2022/06/15 10:17:35;;;;;;;;;;;;;;;;;;5088766;28;19971;-67
2022/06/15 10:20:01;;;;;;;;;;;;;;;;;;5100391;28;19945;-67
2022/06/15 10:22:27;;;;;;;;;;;;;;;;;;5094341;28;19920;-68
2022/06/15 10:24:53;;;;;;;;;;;;;;;;;;5103764;28;19928;-67
2022/06/15 10:27:19;;;;;;;;;;;;;;;;;;5093779;28;19926;-67
2022/06/15 10:29:45;;;;;;;;;;;;;;;;;;5093119;28;20281;-67
2022/06/15 10:32:11;;;;;;;;;;;;;;;;;;5080264;28;19920;-67
2022/06/15 10:34:37;;;;;;;;;;;;;;;;;;5090902;28;19926;-66
2022/06/15 10:37:03;;;;;;;;;;;;;;;;;;5089200;28;20346;-67
2022/06/15 10:39:29;;;;;;;;;;;;;;;;;;5086429;28;19920;-67
2022/06/15 10:41:55;;;;;;;;;;;;;;;;;;5081262;28;19924;-67
2022/06/15 10:44:21;;;;;;;;;;;;;;;;;;5083194;28;20079;-67
2022/06/15 10:46:48;;;;;;;;;;;;;;;;;;5083877;28;19969;-67
2022/06/15 10:49:14;;;;;;;;;;;;;;;;;;5083127;28;20020;-68
2022/06/15 10:51:40;;;;;;;;;;;;;;;;;;5083008;28;20007;-68
2022/06/15 10:54:06;;;;;;;;;;;;;;;;;;5082767;28;19924;-67
2022/06/15 11:02:06;;;;;;;;;;;;;;;;;;5082909;28;20591;-67
2022/06/15 11:04:32;;;;;;;;;;;;;;;;;;5086632;28;20014;-67
2022/06/15 11:06:58;;;;;;;;;;;;;;;;;;5091714;28;20323;-67
2022/06/15 11:09:24;;;;;;;;;;;;;;;;;;5091239;28;20332;-67
2022/06/15 11:11:51;;;;;;;;;;;;;;;;;;5087464;28;20009;-67
2022/06/15 11:14:17;;;;;;;;;;;;;;;;;;5088526;28;20577;-67
2022/06/15 11:19:27;;;;;;;;;;;;;;;;;;5082688;28;20397;-68
2022/06/15 11:21:53;;;;;;;;;;;;;;;;;;5082471;28;19927;-68
2022/06/15 11:24:19;;;;;;;;;;;;;;;;;;5091383;28;19928;-66
2022/06/15 11:26:55;;;;;;;;;;;;;;;;;;5091447;28;19968;-66
2022/06/15 11:29:21;;;;;;;;;;;;;;;;;;5092109;28;19920;-67
2022/06/15 11:31:47;;;;;;;;;;;;;;;;;;5090807;28;19924;-67
2022/06/15 11:34:13;;;;;;;;;;;;;;;;;;5091832;28;19942;-66
2022/06/15 11:36:39;;;;;;;;;;;;;;;;;;5088339;28;20002;-65
2022/06/15 11:39:07;;;;;;;;;;;;;;;;;;5093177;28;19988;-67
2022/06/15 11:41:33;;;;;;;;;;;;;;;;;;5091419;28;19955;-67
2022/06/15 11:43:59;;;;;;;;;;;;;;;;;;5089785;28;19967;-65
2022/06/15 11:46:25;;;;;;;;;;;;;;;;;;5086052;28;19924;-66
2022/06/15 11:48:51;;;;;;;;;;;;;;;;;;5081511;28;19991;-66
2022/06/15 11:51:17;;;;;;;;;;;;;;;;;;5099414;28;19920;-66
2022/06/15 11:53:44;;;;;;;;;;;;;;;;;;5106499;28;19998;-66
2022/06/15 11:56:13;;;;;;;;;;;;;;;;;;5088674;28;20366;-66
2022/06/15 11:58:39;;;;;;;;;;;;;;;;;;5093989;28;19931;-66
2022/06/15 12:01:04;;;;;;;;;;;;;;;;;;5088310;28;19920;-66
2022/06/15 12:03:30;;;;;;;;;;;;;;;;;;5100272;28;20364;-66
2022/06/15 12:05:57;;;;;;;;;;;;;;;;;;5091137;28;20003;-66
2022/06/15 12:08:23;;;;;;;;;;;;;;;;;;5087478;28;19928;-66
2022/06/15 12:10:49;;;;;;;;;;;;;;;;;;5087662;28;19975;-66
2022/06/15 12:13:15;;;;;;;;;;;;;;;;;;5083879;28;19943;-66
2022/06/15 12:15:41;;;;;;;;;;;;;;;;;;5106316;28;19924;-66
2022/06/15 12:18:07;;;;;;;;;;;;;;;;;;5103211;28;20011;-66
2022/06/15 12:20:33;;;;;;;;;;;;;;;;;;5094172;28;20323;-66
2022/06/15 12:22:59;;;;;;;;;;;;;;;;;;5094921;28;19931;-66
2022/06/15 12:25:25;;;;;;;;;;;;;;;;;;5093745;28;19935;-66
2022/06/15 12:27:51;;;;;;;;;;;;;;;;;;5095138;28;20575;-66
2022/06/15 12:30:18;;;;;;;;;;;;;;;;;;5097243;28;19920;-66
2022/06/15 12:32:43;;;;;;;;;;;;;;;;;;5089448;28;19924;-67
2022/06/15 12:35:10;;;;;;;;;;;;;;;;;;5096261;28;20698;-67
2022/06/15 12:37:36;;;;;;;;;;;;;;;;;;5094753;28;20014;-67
2022/06/15 12:40:03;;;;;;;;;;;;;;;;;;5107838;28;20058;-67
2022/06/15 12:42:29;;;;;;;;;;;;;;;;;;5104529;28;19928;-67
2022/06/15 12:44:55;;;;;;;;;;;;;;;;;;5094883;28;19947;-67
2022/06/15 12:47:21;;;;;;;;;;;;;;;;;;5093336;28;20065;-67
2022/06/15 12:49:47;;;;;;;;;;;;;;;;;;5094860;28;19927;-67
2022/06/15 12:52:13;;;;;;;;;;;;;;;;;;5094810;28;19920;-67
2022/06/15 12:54:39;;;;;;;;;;;;;;;;;;5093974;28;19976;-67
2022/06/15 12:57:06;;;;;;;;;;;;;;;;;;5094019;28;19920;-67
2022/06/15 12:59:32;;;;;;;;;;;;;;;;;;5094432;28;19924;-67
2022/06/15 13:01:58;;;;;;;;;;;;;;;;;;5094259;28;19920;-67
2022/06/15 13:04:24;;;;;;;;;;;;;;;;;;5093137;28;19931;-67
2022/06/15 13:06:50;;;;;;;;;;;;;;;;;;5093840;28;20010;-67
2022/06/15 13:09:18;;;;;;;;;;;;;;;;;;5093796;28;19920;-67
2022/06/15 13:11:45;;;;;;;;;;;;;;;;;;5092434;28;19920;-67
2022/06/15 13:14:11;;;;;;;;;;;;;;;;;;5087326;28;20270;-66
2022/06/15 13:16:37;;;;;;;;;;;;;;;;;;5093458;28;20007;-67
2022/06/15 13:19:03;;;;;;;;;;;;;;;;;;5093881;28;20014;-67
2022/06/15 13:21:29;;;;;;;;;;;;;;;;;;5094462;28;19973;-67
2022/06/15 13:23:55;;;;;;;;;;;;;;;;;;5092647;28;19928;-67
2022/06/15 13:26:21;;;;;;;;;;;;;;;;;;5091472;28;19966;-67
2022/06/15 13:28:47;;;;;;;;;;;;;;;;;;5093851;28;19943;-66
2022/06/15 13:31:13;;;;;;;;;;;;;;;;;;5102472;28;19920;-68
2022/06/15 13:33:39;;;;;;;;;;;;;;;;;;5093533;28;19928;-67
2022/06/15 13:36:05;;;;;;;;;;;;;;;;;;5092754;28;19920;-67
2022/06/15 13:38:31;;;;;;;;;;;;;;;;;;5075293;28;19954;-67
2022/06/15 13:40:57;;;;;;;;;;;;;;;;;;5114056;28;19919;-67
2022/06/15 13:43:23;;;;;;;;;;;;;;;;;;5095482;28;19928;-67
2022/06/15 13:45:49;;;;;;;;;;;;;;;;;;5095244;28;19927;-67
2022/06/15 13:48:15;;;;;;;;;;;;;;;;;;5090656;28;20008;-67
2022/06/15 13:50:42;;;;;;;;;;;;;;;;;;5101700;28;20571;-67
2022/06/15 13:53:08;;;;;;;;;;;;;;;;;;5079888;28;19920;-66
2022/06/15 13:55:34;;;;;;;;;;;;;;;;;;5088445;28;20027;-66
2022/06/15 13:58:00;;;;;;;;;;;;;;;;;;5087766;28;19920;-66
2022/06/15 14:00:26;;;;;;;;;;;;;;;;;;5093569;28;19942;-66
2022/06/15 14:02:52;;;;;;;;;;;;;;;;;;5101983;28;20015;-66
2022/06/15 14:05:18;;;;;;;;;;;;;;;;;;5094184;28;19989;-66
2022/06/15 14:07:46;;;;;;;;;;;;;;;;;;5092479;28;19920;-66
2022/06/15 14:10:14;;;;;;;;;;;;;;;;;;5095617;28;20003;-66
2022/06/15 14:12:40;;;;;;;;;;;;;;;;;;5093547;28;19920;-67
2022/06/15 14:15:06;;;;;;;;;;;;;;;;;;5094575;28;20023;-66
2022/06/15 14:17:33;;;;;;;;;;;;;;;;;;5093958;28;20006;-67
2022/06/15 14:20:00;;;;;;;;;;;;;;;;;;5092966;28;19947;-66
2022/06/15 14:22:26;;;;;;;;;;;;;;;;;;5098155;28;20309;-66
2022/06/15 14:24:52;;;;;;;;;;;;;;;;;;5096592;28;19928;-67
2022/06/15 14:27:18;;;;;;;;;;;;;;;;;;5099273;28;19974;-67
2022/06/15 14:29:45;;;;;;;;;;;;;;;;;;5092292;28;19920;-67
2022/06/15 14:32:11;;;;;;;;;;;;;;;;;;5093578;28;19970;-67
2022/06/15 14:34:38;;;;;;;;;;;;;;;;;;5093168;28;19963;-67
2022/06/15 14:37:07;;;;;;;;;;;;;;;;;;5092153;28;19920;-67
2022/06/15 14:39:33;;;;;;;;;;;;;;;;;;5092123;28;20479;-67
2022/06/15 14:41:59;;;;;;;;;;;;;;;;;;5094474;28;19932;-67
2022/06/15 14:44:25;;;;;;;;;;;;;;;;;;5099181;28;19924;-67
2022/06/15 14:46:52;;;;;;;;;;;;;;;;;;5093836;28;19924;-67
2022/06/15 14:49:18;;;;;;;;;;;;;;;;;;5072969;28;19966;-67
2022/06/15 14:51:45;;;;;;;;;;;;;;;;;;5094476;28;20400;-67
2022/06/15 14:54:11;;;;;;;;;;;;;;;;;;5095376;28;20270;-67
2022/06/15 14:56:38;;;;;;;;;;;;;;;;;;5105884;28;19920;-67
2022/06/15 14:59:04;;;;;;;;;;;;;;;;;;5099679;28;19926;-66
2022/06/15 15:01:30;;;;;;;;;;;;;;;;;;5086241;28;19928;-67
2022/06/15 15:03:57;;;;;;;;;;;;;;;;;;5090937;28;19928;-68
2022/06/15 15:06:24;;;;;;;;;;;;;;;;;;5091596;28;19986;-68
2022/06/15 15:08:50;;;;;;;;;;;;;;;;;;5093320;28;19997;-68
2022/06/15 15:11:16;;;;;;;;;;;;;;;;;;5092021;28;20444;-66
2022/06/15 15:13:44;;;;;;;;;;;;;;;;;;5092365;28;19924;-67
2022/06/15 15:16:10;;;;;;;;;;;;;;;;;;5109327;28;19919;-68
2022/06/15 15:18:36;;;;;;;;;;;;;;;;;;5108007;28;19920;-66
2022/06/15 15:21:02;;;;;;;;;;;;;;;;;;5091540;28;20336;-67
2022/06/15 15:23:28;;;;;;;;;;;;;;;;;;5104106;28;19924;-68
2022/06/15 15:25:54;;;;;;;;;;;;;;;;;;5106389;28;19928;-68
2022/06/15 15:34:10;;;;;;;;;;;;;;;;;;5112893;28;20327;-68
2022/06/15 15:39:20;;;;;;;;;;;;;;;;;;5081995;28;20323;-68
2022/06/15 15:41:46;;;;;;;;;;;;;;;;;;5090113;28;19963;-68
2022/06/15 15:44:12;;;;;;;;;;;;;;;;;;5091462;28;19928;-68
2022/06/15 15:46:38;;;;;;;;;;;;;;;;;;5095128;28;19920;-68
2022/06/15 15:49:04;;;;;;;;;;;;;;;;;;5112650;28;19942;-68
2022/06/15 15:51:31;;;;;;;;;;;;;;;;;;5111172;28;19920;-68
2022/06/15 15:53:58;;;;;;;;;;;;;;;;;;5112638;28;19920;-68
2022/06/15 15:56:25;;;;;;;;;;;;;;;;;;5093628;28;19965;-68
2022/06/15 15:58:52;;;;;;;;;;;;;;;;;;5089938;28;19924;-68
2022/06/15 16:01:18;;;;;;;;;;;;;;;;;;5090070;28;19920;-68
2022/06/15 16:03:44;;;;;;;;;;;;;;;;;;5092038;28;19985;-68
2022/06/15 16:06:10;;;;;;;;;;;;;;;;;;5091607;28;19974;-68
2022/06/15 16:08:36;;;;;;;;;;;;;;;;;;5090569;28;19963;-68
2022/06/15 16:11:02;;;;;;;;;;;;;;;;;;5091940;28;19924;-68
2022/06/15 16:13:29;;;;;;;;;;;;;;;;;;5091218;28;19955;-68
2022/06/15 16:15:55;;;;;;;;;;;;;;;;;;5105538;28;19969;-68
2022/06/15 16:18:21;;;;;;;;;;;;;;;;;;5112537;28;19924;-68
2022/06/15 16:20:47;;;;;;;;;;;;;;;;;;5111631;28;19969;-68
2022/06/15 16:23:13;;;;;;;;;;;;;;;;;;5112548;28;19920;-68
2022/06/15 16:25:40;;;;;;;;;;;;;;;;;;5107959;28;20014;-68
2022/06/15 16:28:07;;;;;;;;;;;;;;;;;;5091517;28;19959;-68
2022/06/15 16:30:33;;;;;;;;;;;;;;;;;;5092158;28;19930;-68
2022/06/15 16:32:59;;;;;;;;;;;;;;;;;;5092241;28;20007;-68
2022/06/15 16:35:25;;;;;;;;;;;;;;;;;;5091251;28;20437;-68
2022/06/15 16:37:51;;;;;;;;;;;;;;;;;;5091867;28;20021;-68
2022/06/15 16:40:17;;;;;;;;;;;;;;;;;;5091930;28;19963;-67
2022/06/15 16:42:43;;;;;;;;;;;;;;;;;;5091227;28;19998;-66
2022/06/15 16:45:09;;;;;;;;;;;;;;;;;;5092098;28;19937;-66
2022/06/15 16:47:36;;;;;;;;;;;;;;;;;;5092111;28;20040;-66
2022/06/15 16:50:02;;;;;;;;;;;;;;;;;;5091008;28;20394;-66
2022/06/15 16:52:28;;;;;;;;;;;;;;;;;;5092420;28;19920;-66
2022/06/15 16:54:54;;;;;;;;;;;;;;;;;;5092263;28;20439;-66
2022/06/15 16:57:22;;;;;;;;;;;;;;;;;;5091315;28;19932;-67
2022/06/15 16:59:49;;;;;;;;;;;;;;;;;;5095801;28;19920;-67